createdAt,value
2019-03-31T00:02:50.167Z,4.25
2019-03-31T00:07:53.462Z,4.13
2019-03-31T00:12:56.768Z,4.11
2019-03-31T00:18:00.059Z,3.97
2019-03-31T00:23:03.387Z,4.03
2019-03-31T00:28:07.632Z,3.94
2019-03-31T00:33:10.926Z,3.89
2019-03-31T00:38:14.228Z,3.96
2019-03-31T00:43:17.527Z,3.80
2019-03-31T00:48:20.956Z,3.71
2019-03-31T00:53:24.252Z,3.58
2019-03-31T00:58:27.543Z,3.43
2019-03-31T01:03:32.110Z,3.37
2019-03-31T01:08:35.793Z,3.43
2019-03-31T01:13:39.341Z,3.32
2019-03-31T01:18:42.641Z,3.30
2019-03-31T01:23:46.046Z,3.21
2019-03-31T01:28:49.404Z,3.12
2019-03-31T01:33:52.699Z,3.07
2019-03-31T01:38:56.002Z,3.00
2019-03-31T01:43:59.304Z,2.92
2019-03-31T01:49:03.550Z,2.84
2019-03-31T01:54:06.879Z,2.80
2019-03-31T01:59:10.175Z,2.75
2019-03-31T02:04:14.028Z,2.69
2019-03-31T02:09:17.392Z,2.65
2019-03-31T02:14:20.693Z,2.57
2019-03-31T02:19:24.081Z,2.53
2019-03-31T02:24:27.391Z,2.54
2019-03-31T02:29:30.675Z,2.53
2019-03-31T02:34:33.997Z,2.48
2019-03-31T02:39:37.322Z,2.42
2019-03-31T02:44:40.620Z,2.39
2019-03-31T02:49:43.935Z,2.30
2019-03-31T02:54:47.264Z,2.12
2019-03-31T02:59:51.222Z,2.32
2019-03-31T03:04:54.987Z,2.20
2019-03-31T03:09:58.650Z,2.28
2019-03-31T03:15:04.077Z,2.18
2019-03-31T03:20:07.388Z,2.12
2019-03-31T03:25:10.689Z,2.22
2019-03-31T03:30:13.987Z,2.12
2019-03-31T03:35:17.299Z,2.06
2019-03-31T03:40:20.575Z,1.91
2019-03-31T03:45:23.869Z,1.88
2019-03-31T03:50:28.156Z,1.76
2019-03-31T03:55:31.448Z,1.71
2019-03-31T04:00:34.754Z,1.63
2019-03-31T04:05:38.051Z,1.60
2019-03-31T04:10:47.681Z,1.50
2019-03-31T04:15:50.969Z,1.53
2019-03-31T04:20:54.281Z,1.25
2019-03-31T04:25:57.573Z,1.31
2019-03-31T04:31:00.865Z,1.34
2019-03-31T04:36:04.178Z,1.19
2019-03-31T04:41:07.454Z,1.04
2019-03-31T04:46:10.778Z,0.95
2019-03-31T04:51:14.070Z,1.18
2019-03-31T04:56:17.358Z,1.20
2019-03-31T05:01:20.649Z,1.26
2019-03-31T05:06:23.955Z,1.14
2019-03-31T05:11:27.254Z,0.83
2019-03-31T05:16:30.551Z,1.01
2019-03-31T05:21:33.839Z,1.15
2019-03-31T05:26:37.129Z,1.12
2019-03-31T05:31:40.431Z,1.14
2019-03-31T05:36:43.722Z,1.20
2019-03-31T05:41:47.022Z,1.28
2019-03-31T05:46:50.319Z,1.33
2019-03-31T05:51:53.613Z,1.50
2019-03-31T05:56:56.905Z,1.56
2019-03-31T06:02:00.189Z,1.69
2019-03-31T06:07:03.494Z,1.77
2019-03-31T06:12:06.782Z,1.91
2019-03-31T06:17:10.075Z,2.01
2019-03-31T06:22:13.382Z,2.19
2019-03-31T06:27:16.689Z,2.23
2019-03-31T06:32:20.252Z,2.36
2019-03-31T06:37:23.550Z,2.52
2019-03-31T06:42:26.836Z,2.76
2019-03-31T06:47:30.134Z,2.95
2019-03-31T06:52:33.469Z,3.18
2019-03-31T06:57:36.777Z,3.43
2019-03-31T07:02:40.071Z,3.69
2019-03-31T07:07:43.374Z,4.03
2019-03-31T07:12:46.834Z,4.38
2019-03-31T07:17:50.131Z,4.51
2019-03-31T07:22:53.423Z,4.60
2019-03-31T07:27:56.727Z,4.93
2019-03-31T07:33:00.029Z,5.05
2019-03-31T07:38:03.397Z,5.41
2019-03-31T07:43:06.868Z,5.46
2019-03-31T07:48:10.168Z,5.81
2019-03-31T07:53:13.482Z,6.18
2019-03-31T07:58:16.817Z,6.34
2019-03-31T08:03:20.065Z,6.47
2019-03-31T08:08:23.364Z,6.93
2019-03-31T08:13:26.663Z,7.22
2019-03-31T08:18:30.057Z,7.47
2019-03-31T08:23:33.361Z,7.51
2019-03-31T08:28:36.680Z,8.50
2019-03-31T08:33:39.971Z,8.50
2019-03-31T08:38:43.276Z,8.79
2019-03-31T08:43:46.572Z,9.91
2019-03-31T08:48:49.877Z,10.68
2019-03-31T08:53:53.251Z,10.18
2019-03-31T08:58:56.562Z,11.42
2019-03-31T09:03:59.936Z,11.39
2019-03-31T09:09:03.891Z,11.72
2019-03-31T09:14:07.190Z,11.67
2019-03-31T09:19:10.493Z,13.18
2019-03-31T09:24:13.803Z,12.77
2019-03-31T09:29:17.118Z,12.19
2019-03-31T09:34:20.417Z,14.02
2019-03-31T09:39:23.719Z,14.08
2019-03-31T09:44:30.127Z,12.95
2019-03-31T09:49:32.047Z,14.26
2019-03-31T09:54:35.345Z,13.71
2019-03-31T09:59:38.648Z,15.22
2019-03-31T10:04:41.954Z,15.34
2019-03-31T10:09:45.266Z,13.94
2019-03-31T10:14:48.575Z,15.37
2019-03-31T10:19:51.879Z,16.11
2019-03-31T10:24:55.189Z,15.66
2019-03-31T10:29:58.500Z,16.05
2019-03-31T10:35:01.814Z,16.02
2019-03-31T10:40:09.345Z,16.61
2019-03-31T10:45:12.659Z,16.48
2019-03-31T10:50:16.098Z,17.34
2019-03-31T10:55:19.392Z,16.35
2019-03-31T11:00:33.130Z,16.63
2019-03-31T11:05:36.615Z,17.70
2019-03-31T11:10:39.938Z,17.48
2019-03-31T11:15:43.235Z,17.36
2019-03-31T11:20:46.537Z,18.96
2019-03-31T11:25:49.848Z,18.10
2019-03-31T11:30:53.159Z,19.66
2019-03-31T11:35:56.464Z,18.79
2019-03-31T11:40:59.776Z,18.54
2019-03-31T11:46:03.088Z,19.78
2019-03-31T11:51:06.378Z,20.72
2019-03-31T11:56:09.687Z,19.49
2019-03-31T12:01:13.009Z,21.09
2019-03-31T12:06:16.468Z,21.09
2019-03-31T12:11:19.837Z,20.52
2019-03-31T12:16:23.149Z,19.95
2019-03-31T12:21:26.460Z,18.95
2019-03-31T12:26:29.761Z,18.41
2019-03-31T12:31:33.074Z,18.78
2019-03-31T12:36:36.378Z,20.62
2019-03-31T12:41:39.681Z,20.89
2019-03-31T12:46:42.999Z,21.29
2019-03-31T12:51:46.292Z,19.70
2019-03-31T12:56:49.588Z,19.36
2019-03-31T13:01:52.896Z,20.03
2019-03-31T13:06:56.203Z,21.90
2019-03-31T13:11:59.527Z,20.78
2019-03-31T13:17:02.835Z,23.17
2019-03-31T13:22:06.164Z,20.09
2019-03-31T13:27:09.472Z,19.20
2019-03-31T13:32:12.810Z,18.96
2019-03-31T13:37:16.126Z,18.96
2019-03-31T13:42:19.437Z,18.73
2019-03-31T13:47:22.810Z,19.78
2019-03-31T13:52:26.103Z,19.01
2019-03-31T13:57:30.105Z,19.13
2019-03-31T14:02:33.788Z,19.32
2019-03-31T14:07:37.101Z,19.09
2019-03-31T14:12:40.416Z,19.92
2019-03-31T14:17:43.717Z,19.48
2019-03-31T14:22:47.033Z,19.31
2019-03-31T14:27:50.347Z,20.17
2019-03-31T14:32:53.653Z,21.57
2019-03-31T14:37:57.016Z,22.96
2019-03-31T14:43:00.262Z,22.68
2019-03-31T14:48:03.833Z,20.60
2019-03-31T14:53:08.752Z,21.62
2019-03-31T14:58:12.030Z,19.96
2019-03-31T15:03:18.008Z,18.94
2019-03-31T15:08:20.969Z,18.60
2019-03-31T15:13:24.235Z,18.52
2019-03-31T15:18:27.547Z,19.59
2019-03-31T15:23:30.901Z,17.98
2019-03-31T15:28:34.237Z,17.75
2019-03-31T15:33:37.550Z,18.10
2019-03-31T15:38:40.936Z,19.46
2019-03-31T15:43:44.260Z,20.07
2019-03-31T15:48:47.646Z,19.70
2019-03-31T15:53:51.043Z,18.86
2019-03-31T15:58:54.381Z,19.19
2019-03-31T16:03:57.694Z,17.95
2019-03-31T16:09:01.024Z,18.23
2019-03-31T16:14:04.351Z,17.79
2019-03-31T16:19:07.673Z,17.29
2019-03-31T16:24:11.003Z,17.39
2019-03-31T16:29:14.325Z,17.38
2019-03-31T16:34:17.883Z,17.16
2019-03-31T16:39:21.203Z,16.86
2019-03-31T16:44:24.532Z,16.74
2019-03-31T16:49:27.868Z,16.51
2019-03-31T16:54:31.191Z,16.36
2019-03-31T16:59:34.516Z,16.24
2019-03-31T17:04:37.865Z,16.06
2019-03-31T17:09:51.437Z,15.83
2019-03-31T17:14:46.422Z,15.44
2019-03-31T17:19:50.717Z,15.03
2019-03-31T17:24:54.056Z,14.86
2019-03-31T17:29:57.396Z,14.74
2019-03-31T17:35:00.759Z,14.49
2019-03-31T17:40:07.146Z,14.05
2019-03-31T17:45:10.628Z,13.81
2019-03-31T17:50:14.516Z,13.66
2019-03-31T17:55:17.862Z,13.51
2019-03-31T18:00:22.732Z,13.34
2019-03-31T18:05:26.171Z,13.13
2019-03-31T18:10:29.495Z,12.94
2019-03-31T18:15:32.865Z,12.76
2019-03-31T18:20:36.275Z,12.65
2019-03-31T18:25:39.603Z,12.48
2019-03-31T18:30:42.933Z,12.31
2019-03-31T18:35:46.287Z,12.21
2019-03-31T18:40:49.609Z,12.06
2019-03-31T18:45:54.775Z,11.94
2019-03-31T18:50:58.269Z,11.75
2019-03-31T18:56:19.929Z,11.68
2019-03-31T19:01:37.197Z,11.50
2019-03-31T19:06:44.710Z,11.36
2019-03-31T19:11:49.770Z,11.23
2019-03-31T19:17:00.461Z,11.01
2019-03-31T19:22:08.017Z,10.77
2019-03-31T19:27:12.970Z,10.65
2019-03-31T19:32:32.948Z,10.43
2019-03-31T19:37:56.560Z,10.26
2019-03-31T19:43:17.625Z,10.07
2019-03-31T19:48:37.727Z,9.87
2019-03-31T19:53:45.350Z,9.75
2019-03-31T19:59:06.645Z,9.58
2019-03-31T20:04:14.565Z,9.46
2019-03-31T20:09:20.062Z,9.39
2019-03-31T20:14:44.256Z,9.31
2019-03-31T20:20:05.468Z,9.18
2019-03-31T20:25:11.550Z,9.15
2019-03-31T20:30:16.508Z,9.04
2019-03-31T20:35:24.471Z,8.86
2019-03-31T20:40:29.430Z,8.76
2019-03-31T20:45:32.762Z,8.63
2019-03-31T20:50:36.071Z,8.48
2019-03-31T20:55:39.391Z,8.32
2019-03-31T21:00:42.943Z,8.20
2019-03-31T21:05:48.379Z,8.20
2019-03-31T21:10:51.701Z,8.17
2019-03-31T21:15:55.097Z,8.10
2019-03-31T21:21:00.014Z,8.03
2019-03-31T21:26:03.755Z,8.00
2019-03-31T21:31:07.160Z,8.00
2019-03-31T21:36:10.514Z,7.96
2019-03-31T21:41:14.323Z,7.97
2019-03-31T21:46:17.973Z,7.88
2019-03-31T21:51:21.340Z,7.89
2019-03-31T21:56:24.808Z,7.87
2019-03-31T22:01:28.280Z,7.84
2019-03-31T22:06:32.821Z,7.89
2019-03-31T22:11:36.323Z,7.78
2019-03-31T22:16:39.619Z,7.79
2019-03-31T22:21:42.926Z,7.67
2019-03-31T22:26:46.296Z,7.63
2019-03-31T22:31:49.604Z,7.62
2019-03-31T22:36:52.913Z,7.61
2019-03-31T22:41:56.204Z,7.55
2019-03-31T22:46:59.503Z,7.54
2019-03-31T22:52:02.807Z,7.43
2019-03-31T22:57:06.179Z,7.35
2019-03-31T23:02:09.475Z,7.38
2019-03-31T23:07:12.848Z,7.31
2019-03-31T23:12:16.184Z,7.28
2019-03-31T23:17:19.507Z,7.18
2019-03-31T23:22:22.851Z,7.09
2019-03-31T23:27:26.152Z,7.04
2019-03-31T23:32:29.460Z,7.01
2019-03-31T23:37:32.769Z,6.96
2019-03-31T23:42:36.079Z,6.88
2019-03-31T23:47:39.379Z,6.84
2019-03-31T23:52:42.673Z,6.81
2019-03-31T23:57:45.967Z,6.81
